Time;durP1;ratioP1;P1;durP2;ratioP2;P2;SDS_P1;SDS_P2;PMS_P1;PMS_P2;Temp;Humidity;BMP_temperature;BMP_pressure;BME280_temperature;BME280_humidity;BME280_pressure;Samples;Min_cycle;Max_cycle;Signal;HPM_P1;HPM_P2
2023/10/25 00:00:09;;;;;;;;;2.00;2.00;;;;;13.19;71.08;99188.22;5084459;27;45305;-87
2023/10/25 00:02:36;;;;;;;;;3.33;2.00;;;;;13.30;71.03;99204.13;5083668;27;45591;-87
2023/10/25 00:05:01;;;;;;;;;1.00;1.00;;;;;13.28;71.30;99200.72;5083734;27;45263;-88
2023/10/25 00:07:27;;;;;;;;;0.00;0.00;;;;;13.40;72.44;99223.66;5082447;27;45378;-85
2023/10/25 00:09:52;;;;;;;;;4.67;2.00;;;;;13.09;72.29;99173.97;5082662;27;45231;-87
2023/10/25 00:12:18;;;;;;;;;4.33;2.00;;;;;13.35;72.14;99209.88;5084976;28;55535;-87
2023/10/25 00:14:43;;;;;;;;;1.33;1.33;;;;;13.25;72.77;99201.00;5082323;27;45412;-87
2023/10/25 00:17:08;;;;;;;;;2.33;2.00;;;;;13.14;74.62;99174.38;5080733;27;45510;-88
2023/10/25 00:19:33;;;;;;;;;3.00;3.00;;;;;12.90;74.27;99146.25;5097252;27;45587;-86
2023/10/25 00:21:59;;;;;;;;;3.00;1.00;;;;;12.77;75.46;99137.66;5084662;28;59978;-88
2023/10/25 00:24:24;;;;;;;;;3.33;2.67;;;;;12.81;75.94;99155.06;5087375;28;45364;-88
2023/10/25 00:26:50;;;;;;;;;2.00;2.00;;;;;13.01;75.51;99193.31;5086612;27;45562;-86
2023/10/25 00:29:16;;;;;;;;;1.33;1.00;;;;;12.97;76.37;99197.25;5082101;27;45337;-88
2023/10/25 00:31:42;;;;;;;;;2.00;2.00;;;;;12.86;77.33;99179.50;5080718;27;46270;-85
2023/10/25 00:34:08;;;;;;;;;2.00;2.00;;;;;12.61;77.97;99163.94;5080834;27;45470;-87
2023/10/25 00:36:33;;;;;;;;;2.00;1.00;;;;;12.74;78.57;99204.59;5078910;28;45365;-89
2023/10/25 00:38:58;;;;;;;;;4.00;0.67;;;;;12.69;78.61;99213.00;5079115;27;45649;-87
2023/10/25 00:41:24;;;;;;;;;1.33;1.33;;;;;12.39;79.91;99160.50;5080289;27;46552;-87
2023/10/25 00:43:49;;;;;;;;;3.00;2.00;;;;;12.58;80.18;99172.22;5081142;27;51827;-88
2023/10/25 00:46:19;;;;;;;;;1.00;1.00;;;;;12.55;80.28;99164.50;5081448;27;45354;-87
2023/10/25 00:48:46;;;;;;;;;2.00;2.00;;;;;12.50;79.91;99151.56;5082476;28;45248;-85
2023/10/25 00:51:14;;;;;;;;;1.00;1.00;;;;;12.40;83.13;99130.19;5081115;28;45563;-86
2023/10/25 00:53:53;;;;;;;;;2.00;2.00;;;;;12.61;81.92;99171.94;5080487;27;45278;-85
2023/10/25 00:56:23;;;;;;;;;0.33;0.33;;;;;12.51;82.76;99158.59;5081241;27;45357;-86
2023/10/25 00:58:54;;;;;;;;;3.33;2.00;;;;;12.54;83.33;99157.47;5080216;28;45274;-86
2023/10/25 01:01:22;;;;;;;;;2.00;2.00;;;;;12.37;83.87;99122.47;5078971;27;46195;-85
2023/10/25 01:03:47;;;;;;;;;2.00;2.00;;;;;12.53;84.29;99140.63;5078794;27;45341;-86
2023/10/25 01:06:13;;;;;;;;;3.00;1.00;;;;;12.13;85.23;99081.09;5079089;27;45362;-84
2023/10/25 01:08:39;;;;;;;;;1.33;1.33;;;;;12.17;85.24;99102.00;5079924;27;45515;-86
2023/10/25 01:11:04;;;;;;;;;1.00;1.00;;;;;12.28;87.97;99114.41;5079757;27;47408;-84
2023/10/25 01:13:30;;;;;;;;;1.00;1.00;;;;;12.25;88.16;99118.19;5082523;27;45373;-85
2023/10/25 01:15:55;;;;;;;;;2.00;2.00;;;;;12.19;88.77;99101.88;5079884;27;45457;-86
2023/10/25 01:18:20;;;;;;;;;1.33;1.33;;;;;11.93;88.63;99066.81;5080057;27;45539;-85
2023/10/25 01:20:46;;;;;;;;;1.67;1.67;;;;;11.93;92.13;99069.47;5079861;27;46224;-84
2023/10/25 01:23:12;;;;;;;;;2.33;1.00;;;;;12.02;92.36;99084.69;5080023;28;45148;-87
2023/10/25 01:25:38;;;;;;;;;1.00;1.00;;;;;11.88;92.66;99066.38;5078063;28;45236;-83
2023/10/25 01:28:04;;;;;;;;;3.33;2.00;;;;;12.01;93.68;99072.34;5078789;28;45634;-84
2023/10/25 01:30:29;;;;;;;;;3.00;2.00;;;;;11.94;93.46;99047.19;5082334;27;45441;-84
2023/10/25 01:32:55;;;;;;;;;2.33;2.00;;;;;11.73;93.75;98991.25;5088922;28;45235;-85
2023/10/25 01:35:20;;;;;;;;;1.67;1.67;;;;;11.80;92.55;99003.94;5092935;27;45159;-84
2023/10/25 01:37:46;;;;;;;;;1.67;1.00;;;;;11.53;93.03;98958.34;5084517;27;45242;-85
2023/10/25 01:40:12;;;;;;;;;0.33;0.33;;;;;11.54;93.34;98968.03;5082239;27;46272;-83
2023/10/25 01:42:37;;;;;;;;;3.00;1.67;;;;;11.53;94.44;98948.53;5097653;27;45287;-86
2023/10/25 01:45:03;;;;;;;;;1.33;1.33;;;;;11.86;94.14;98997.25;5079892;28;56123;-84
2023/10/25 01:47:28;;;;;;;;;1.00;1.00;;;;;11.87;94.38;98987.44;5079194;27;45403;-85
2023/10/25 01:49:54;;;;;;;;;2.00;1.00;;;;;11.53;94.81;98926.41;5078900;27;45449;-85
2023/10/25 01:52:19;;;;;;;;;1.00;1.00;;;;;11.67;94.73;98955.34;5079151;27;45333;-85
2023/10/25 01:54:46;;;;;;;;;1.00;1.00;;;;;11.77;94.20;98961.56;5077512;28;45415;-85
2023/10/25 01:57:12;;;;;;;;;0.00;0.00;;;;;11.42;94.86;98900.69;5079255;27;45423;-85
2023/10/25 01:59:37;;;;;;;;;0.33;0.33;;;;;11.82;94.43;98975.34;5076801;27;48443;-84
2023/10/25 02:02:04;;;;;;;;;1.00;1.00;;;;;11.78;95.32;98952.59;5078578;27;45318;-85
2023/10/25 02:04:29;;;;;;;;;1.00;1.00;;;;;11.76;95.07;98954.53;5078732;27;45556;-85
2023/10/25 02:06:55;;;;;;;;;1.33;1.33;;;;;11.74;95.49;98945.00;5095852;27;45242;-85
2023/10/25 02:09:21;;;;;;;;;1.00;1.00;;;;;11.74;96.54;98939.69;5077765;28;46276;-84
2023/10/25 02:11:47;;;;;;;;;1.00;1.00;;;;;11.20;94.98;98837.03;5078738;28;45549;-86
2023/10/25 02:14:13;;;;;;;;;1.67;1.00;;;;;11.74;95.83;98921.03;5078690;28;45325;-86
2023/10/25 02:16:38;;;;;;;;;1.33;1.33;;;;;11.45;95.67;98870.31;5077774;28;45641;-85
2023/10/25 02:19:04;;;;;;;;;0.00;0.00;;;;;11.52;95.82;98876.78;5085787;28;58354;-84
2023/10/25 02:21:34;;;;;;;;;1.67;1.00;;;;;11.39;96.23;98855.72;5094191;28;44661;-85
2023/10/25 02:24:00;;;;;;;;;1.00;1.00;;;;;11.61;96.31;98885.81;5098734;27;45203;-85
2023/10/25 02:26:27;;;;;;;;;4.00;1.00;;;;;11.72;97.00;98899.03;5111961;27;45575;-85
2023/10/25 02:28:52;;;;;;;;;1.00;1.00;;;;;11.67;96.88;98891.44;5091206;27;46076;-84
2023/10/25 02:31:17;;;;;;;;;1.00;1.00;;;;;11.70;97.22;98871.66;5082758;28;45342;-85
2023/10/25 02:33:43;;;;;;;;;1.33;1.00;;;;;11.48;97.19;98827.47;5078364;28;45450;-85
2023/10/25 02:36:08;;;;;;;;;0.67;0.67;;;;;11.25;97.10;98783.38;5077598;27;51971;-86
2023/10/25 02:38:33;;;;;;;;;1.00;1.00;;;;;11.51;97.73;98828.03;5077389;28;46784;-85
2023/10/25 02:40:58;;;;;;;;;1.00;1.00;;;;;11.36;96.66;98764.66;5077650;28;63865;-85
2023/10/25 02:43:24;;;;;;;;;1.00;1.00;;;;;11.81;98.13;98843.16;5078859;28;56921;-85
2023/10/25 02:45:49;;;;;;;;;1.00;1.00;;;;;11.71;97.92;98807.63;5077054;28;51593;-86
2023/10/25 02:48:15;;;;;;;;;2.00;1.00;;;;;11.86;97.16;98826.78;5077515;28;45475;-84
2023/10/25 02:50:41;;;;;;;;;0.00;0.00;;;;;11.48;96.76;98752.94;5077444;27;45383;-87
2023/10/25 02:53:06;;;;;;;;;1.00;1.00;;;;;11.91;97.16;98818.34;5078200;27;45306;-86
2023/10/25 02:55:35;;;;;;;;;1.00;1.00;;;;;11.43;97.14;98728.53;5077902;27;45237;-87
2023/10/25 02:58:00;;;;;;;;;1.00;1.00;;;;;11.97;96.99;98807.97;5077194;27;46125;-85
2023/10/25 03:00:26;;;;;;;;;2.00;2.00;;;;;11.76;97.21;98772.59;5075639;27;45430;-87
2023/10/25 03:02:51;;;;;;;;;2.00;1.00;;;;;12.00;97.05;98812.22;5077176;27;45337;-86
2023/10/25 03:05:16;;;;;;;;;2.00;1.00;;;;;11.78;97.24;98749.34;5077234;28;52033;-86
2023/10/25 03:07:42;;;;;;;;;1.00;1.00;;;;;12.04;97.21;98778.97;5076123;28;48189;-85
2023/10/25 03:10:08;;;;;;;;;1.00;1.00;;;;;12.08;97.45;98780.38;5077959;27;45257;-85
2023/10/25 03:12:33;;;;;;;;;1.00;1.00;;;;;11.98;98.41;98768.84;5080735;27;45461;-87
2023/10/25 03:14:59;;;;;;;;;1.33;1.33;;;;;11.74;98.67;98735.47;5080318;27;45551;-86
2023/10/25 03:17:27;;;;;;;;;1.67;1.67;;;;;12.01;98.86;98764.13;5080938;27;45397;-86
2023/10/25 03:19:52;;;;;;;;;1.00;1.00;;;;;12.03;99.61;98774.63;5082318;27;45349;-87
2023/10/25 03:22:18;;;;;;;;;2.00;1.00;;;;;12.03;99.48;98769.31;5077283;27;45249;-86
2023/10/25 03:24:43;;;;;;;;;3.00;1.00;;;;;12.04;100.00;98771.81;5077716;27;45347;-85
2023/10/25 03:27:08;;;;;;;;;1.00;1.00;;;;;11.92;100.00;98745.44;5077150;27;45469;-86
2023/10/25 03:29:37;;;;;;;;;1.00;1.00;;;;;11.77;100.00;98705.88;5076727;28;45274;-84
2023/10/25 03:32:02;;;;;;;;;2.00;1.00;;;;;12.00;100.00;98742.94;5075499;28;45344;-88
2023/10/25 03:34:28;;;;;;;;;2.00;2.00;;;;;11.82;100.00;98697.50;5076802;27;45398;-86
2023/10/25 03:36:54;;;;;;;;;0.33;0.33;;;;;12.07;100.00;98730.72;5076849;27;46475;-86
2023/10/25 03:39:19;;;;;;;;;1.33;1.33;;;;;11.59;100.00;98659.63;5077273;27;45423;-86
2023/10/25 03:41:44;;;;;;;;;1.00;1.00;;;;;11.97;100.00;98720.06;5076962;27;45487;-86
2023/10/25 03:44:10;;;;;;;;;5.67;1.33;;;;;11.91;100.00;98707.31;5092874;27;45404;-86
2023/10/25 03:46:36;;;;;;;;;4.00;3.00;;;;;11.88;100.00;98680.13;5076408;27;45409;-86
2023/10/25 03:49:01;;;;;;;;;1.00;1.00;;;;;12.06;100.00;98699.75;5076712;27;45463;-84
2023/10/25 03:51:27;;;;;;;;;2.33;2.00;;;;;12.04;100.00;98689.22;5082094;27;46418;-87
2023/10/25 03:53:53;;;;;;;;;3.00;3.00;;;;;11.91;100.00;98675.34;5093309;27;45815;-85
2023/10/25 03:56:18;;;;;;;;;2.00;2.00;;;;;12.04;100.00;98683.06;5075540;28;47030;-85
2023/10/25 03:58:44;;;;;;;;;2.00;2.00;;;;;11.99;100.00;98664.00;5092246;27;45318;-86
2023/10/25 04:01:09;;;;;;;;;4.00;2.00;;;;;11.87;100.00;98635.84;5077147;27;45539;-88
2023/10/25 04:03:34;;;;;;;;;2.67;2.00;;;;;12.25;100.00;98681.06;5076753;28;45566;-87
2023/10/25 04:06:02;;;;;;;;;1.00;1.00;;;;;12.28;100.00;98675.44;5075210;28;46109;-86
2023/10/25 04:08:27;;;;;;;;;1.67;1.00;;;;;12.13;100.00;98644.06;5075185;28;45645;-86
2023/10/25 04:10:54;;;;;;;;;2.00;2.00;;;;;12.06;100.00;98631.31;5076092;28;45365;-84
2023/10/25 04:13:21;;;;;;;;;2.00;2.00;;;;;11.76;100.00;98568.38;5076577;27;45503;-86
2023/10/25 04:15:57;;;;;;;;;1.00;1.00;;;;;11.88;100.00;98593.06;5074548;28;48376;-85
2023/10/25 04:18:28;;;;;;;;;0.33;0.33;;;;;12.06;100.00;98603.81;5076257;27;45276;-85
2023/10/25 04:20:54;;;;;;;;;2.00;2.00;;;;;12.35;100.00;98644.56;5075164;28;45425;-85
2023/10/25 04:23:19;;;;;;;;;2.00;2.00;;;;;12.37;100.00;98647.09;5082072;27;45403;-87
2023/10/25 04:25:45;;;;;;;;;2.00;2.00;;;;;12.34;100.00;98613.56;5083171;27;45377;-86
2023/10/25 04:28:12;;;;;;;;;2.00;2.00;;;;;12.07;100.00;98570.88;5088216;28;45275;-85
2023/10/25 04:30:37;;;;;;;;;1.33;1.33;;;;;12.45;100.00;98630.38;5084410;27;45266;-85
2023/10/25 04:33:02;;;;;;;;;2.00;2.00;;;;;12.48;100.00;98635.41;5080184;27;45271;-86
2023/10/25 04:35:28;;;;;;;;;2.00;2.00;;;;;12.23;100.00;98587.06;5079719;27;46207;-84
2023/10/25 04:37:55;;;;;;;;;3.00;1.33;;;;;12.07;100.00;98562.88;5079849;27;45488;-86
2023/10/25 04:40:23;;;;;;;;;2.00;1.00;;;;;12.09;100.00;98567.06;5079421;28;45376;-86
2023/10/25 04:42:53;;;;;;;;;0.00;0.00;;;;;12.43;100.00;98606.53;5079685;27;45525;-86
2023/10/25 04:45:19;;;;;;;;;2.00;2.00;;;;;12.33;100.00;98595.03;5079319;28;46415;-86
2023/10/25 04:47:44;;;;;;;;;1.00;1.00;;;;;12.39;100.00;98595.31;5079847;27;45270;-87
2023/10/25 04:50:09;;;;;;;;;3.33;3.33;;;;;12.45;100.00;98617.03;5079420;27;45784;-85
2023/10/25 04:52:35;;;;;;;;;2.00;2.00;;;;;12.38;100.00;98593.66;5080377;27;45609;-87
2023/10/25 04:55:00;;;;;;;;;2.33;2.33;;;;;12.48;100.00;98614.06;5079277;27;45333;-87
2023/10/25 04:57:25;;;;;;;;;1.67;1.67;;;;;12.47;100.00;98615.06;5079568;27;45222;-88
2023/10/25 04:59:52;;;;;;;;;1.00;1.00;;;;;12.50;100.00;98612.09;5079251;27;47589;-84
2023/10/25 05:02:18;;;;;;;;;1.00;1.00;;;;;12.49;100.00;98605.09;5081848;27;45390;-86
2023/10/25 05:04:43;;;;;;;;;1.00;1.00;;;;;12.52;100.00;98611.00;5079731;27;46519;-86
2023/10/25 05:07:09;;;;;;;;;4.00;2.00;;;;;12.08;100.00;98537.91;5080258;28;45435;-86
2023/10/25 05:09:35;;;;;;;;;1.67;1.67;;;;;12.51;100.00;98603.13;5080719;27;45243;-85
2023/10/25 05:12:08;;;;;;;;;1.00;1.00;;;;;12.55;100.00;98608.03;5079776;27;45380;-88
2023/10/25 05:14:34;;;;;;;;;1.00;1.00;;;;;12.40;100.00;98583.66;5080744;27;45401;-85
2023/10/25 05:17:00;;;;;;;;;3.00;2.00;;;;;12.46;100.00;98570.72;5081203;27;45287;-83
2023/10/25 05:19:26;;;;;;;;;1.33;1.33;;;;;12.23;100.00;98546.25;5079623;28;45378;-85
2023/10/25 05:21:54;;;;;;;;;2.00;2.00;;;;;12.55;100.00;98588.53;5082592;27;45423;-86
2023/10/25 05:24:19;;;;;;;;;2.00;2.00;;;;;12.66;100.00;98599.00;5082725;27;45986;-85
2023/10/25 05:26:45;;;;;;;;;2.00;2.00;;;;;12.14;100.00;98510.69;5091742;28;45408;-87
2023/10/25 05:29:11;;;;;;;;;2.00;2.00;;;;;12.61;100.00;98577.25;5088307;28;45365;-86
2023/10/25 05:31:41;;;;;;;;;1.33;1.33;;;;;12.52;100.00;98560.34;5082090;28;45227;-89
2023/10/25 05:34:07;;;;;;;;;5.00;3.00;;;;;12.59;100.00;98565.91;5079799;28;45539;-89
2023/10/25 05:36:34;;;;;;;;;2.00;2.00;;;;;12.61;100.00;98564.75;5079830;27;45404;-87
2023/10/25 05:39:02;;;;;;;;;2.00;2.00;;;;;12.51;100.00;98536.47;5081223;28;45391;-87
2023/10/25 05:41:30;;;;;;;;;2.00;2.00;;;;;12.91;100.00;98592.13;5091797;27;45417;-88
2023/10/25 05:44:13;;;;;;;;;2.00;2.00;;;;;12.93;100.00;98582.16;5082719;27;48302;-88
2023/10/25 05:46:38;;;;;;;;;2.67;2.67;;;;;12.79;100.00;98563.97;5080463;27;45341;-88
2023/10/25 05:49:04;;;;;;;;;3.00;3.00;;;;;12.88;100.00;98574.56;5080169;28;45271;-88
2023/10/25 05:51:30;;;;;;;;;4.00;2.33;;;;;13.02;100.00;98589.25;5079143;28;45437;-90
2023/10/25 05:53:55;;;;;;;;;2.00;2.00;;;;;12.60;100.00;98512.41;5079396;27;47260;-88
2023/10/25 05:56:25;;;;;;;;;3.00;3.00;;;;;13.08;100.00;98585.97;5080632;28;45361;-88
2023/10/25 05:58:52;;;;;;;;;3.50;2.50;;;;;12.95;100.00;98559.66;5078955;28;45256;-87
2023/10/25 06:01:24;;;;;;;;;4.00;4.00;;;;;12.90;100.00;98551.28;5080715;27;45465;-87
2023/10/25 06:03:51;;;;;;;;;2.00;1.00;;;;;12.91;100.00;98542.28;5079996;27;45414;-86
2023/10/25 06:06:18;;;;;;;;;3.33;3.00;;;;;13.06;100.00;98560.44;5080398;27;45313;-87
2023/10/25 06:08:45;;;;;;;;;4.00;4.00;;;;;12.97;100.00;98540.81;5080221;28;45363;-87
2023/10/25 06:11:10;;;;;;;;;5.00;4.00;;;;;12.76;100.00;98501.09;5083109;28;44936;-89
2023/10/25 06:13:36;;;;;;;;;2.00;2.00;;;;;12.85;100.00;98518.84;5101853;27;46781;-88
2023/10/25 06:16:01;;;;;;;;;3.00;2.33;;;;;13.18;100.00;98564.56;5083098;27;45260;-88
2023/10/25 06:18:27;;;;;;;;;5.00;2.00;;;;;13.36;100.00;98592.13;5087413;27;45353;-85
2023/10/25 06:20:52;;;;;;;;;4.00;2.33;;;;;13.23;100.00;98562.31;5093546;28;56161;-85
2023/10/25 06:23:17;;;;;;;;;4.00;4.00;;;;;13.44;100.00;98591.38;5097151;28;51974;-86
2023/10/25 06:25:42;;;;;;;;;1.33;1.33;;;;;13.47;100.00;98591.06;5095519;28;60037;-87
2023/10/25 06:28:08;;;;;;;;;3.00;3.00;;;;;13.20;100.00;98533.25;5101524;27;45356;-88
2023/10/25 06:30:34;;;;;;;;;3.00;1.00;;;;;13.53;100.00;98593.94;5084338;27;45256;-86
2023/10/25 06:33:11;;;;;;;;;3.00;3.00;;;;;13.59;100.00;98589.84;5091568;28;46794;-86
2023/10/25 06:35:40;;;;;;;;;2.00;2.00;;;;;13.65;100.00;98593.72;5090796;28;45360;-87
2023/10/25 06:38:05;;;;;;;;;3.00;2.00;;;;;13.70;100.00;98594.09;5088441;28;45499;-85
2023/10/25 06:40:33;;;;;;;;;3.33;3.00;;;;;13.34;100.00;98540.72;5087009;27;45417;-85
2023/10/25 06:43:00;;;;;;;;;2.67;1.00;;;;;13.61;100.00;98577.16;5088740;27;45340;-86
2023/10/25 06:45:25;;;;;;;;;1.00;1.00;;;;;13.46;100.00;98547.50;5085780;28;45184;-85
2023/10/25 06:47:52;;;;;;;;;1.00;1.00;;;;;13.25;100.00;98522.94;5084144;27;45389;-88
2023/10/25 06:50:18;;;;;;;;;1.00;1.00;;;;;13.75;100.00;98594.47;5080666;27;45291;-89
2023/10/25 06:52:44;;;;;;;;;1.00;1.00;;;;;13.84;100.00;98609.59;5087863;28;45476;-85
2023/10/25 06:55:10;;;;;;;;;1.00;1.00;;;;;13.88;100.00;98616.28;5088873;28;44820;-87
2023/10/25 06:57:36;;;;;;;;;1.67;1.67;;;;;13.89;100.00;98625.97;5101883;27;44704;-85
2023/10/25 07:00:06;;;;;;;;;0.00;0.00;;;;;13.92;100.00;98638.19;5093083;27;44813;-87
2023/10/25 07:02:53;;;;;;;;;1.00;1.00;;;;;13.95;100.00;98628.06;5088263;27;45622;-86
2023/10/25 07:05:23;;;;;;;;;0.00;0.00;;;;;13.66;100.00;98579.34;5084037;27;44693;-86
2023/10/25 07:07:52;;;;;;;;;2.00;2.00;;;;;13.84;100.00;98607.75;5083308;27;45234;-86
2023/10/25 07:10:19;;;;;;;;;1.00;0.00;;;;;14.01;100.00;98631.91;5079089;27;45427;-86
2023/10/25 07:12:45;;;;;;;;;1.00;1.00;;;;;13.96;100.00;98624.38;5078656;27;45496;-87
2023/10/25 07:15:11;;;;;;;;;0.00;0.00;;;;;13.90;100.00;98608.94;5096537;27;45468;-88
2023/10/25 07:17:37;;;;;;;;;1.00;1.00;;;;;13.99;100.00;98624.06;5061238;28;45494;-88
2023/10/25 07:20:12;;;;;;;;;1.33;0.00;;;;;14.11;99.85;98635.34;5096884;27;45515;-87
2023/10/25 07:22:38;;;;;;;;;1.00;1.00;;;;;14.01;99.45;98622.06;5089996;28;48006;-88
2023/10/25 07:25:05;;;;;;;;;4.67;2.00;;;;;13.98;98.89;98595.66;5077721;28;45466;-87
2023/10/25 07:27:30;;;;;;;;;2.00;0.00;;;;;14.22;98.30;98639.59;5079547;28;45785;-87
2023/10/25 07:29:55;;;;;;;;;1.00;1.00;;;;;14.33;98.13;98644.69;5080258;27;45309;-87
2023/10/25 07:32:21;;;;;;;;;0.67;0.67;;;;;14.35;97.66;98648.03;5082560;28;58422;-86
2023/10/25 07:34:48;;;;;;;;;1.00;1.00;;;;;14.26;96.80;98623.06;5084305;28;45331;-88
2023/10/25 07:37:15;;;;;;;;;0.00;0.00;;;;;14.43;96.12;98653.44;5079638;27;45254;-87
2023/10/25 07:39:40;;;;;;;;;2.00;0.00;;;;;14.28;95.47;98623.75;5079153;27;45504;-87
2023/10/25 07:42:07;;;;;;;;;0.00;0.00;;;;;14.43;95.39;98648.06;5078505;27;45978;-88
2023/10/25 07:44:32;;;;;;;;;0.00;0.00;;;;;14.36;94.70;98644.38;5078861;28;45493;-88
2023/10/25 07:46:57;;;;;;;;;0.00;0.00;;;;;14.25;94.47;98628.59;5080649;28;45208;-86
2023/10/25 07:49:23;;;;;;;;;0.00;0.00;;;;;14.20;94.66;98609.50;5080954;27;45147;-88
2023/10/25 07:51:48;;;;;;;;;2.00;1.00;;;;;14.52;94.50;98671.25;5077268;28;46932;-88
2023/10/25 07:54:14;;;;;;;;;1.33;1.33;;;;;14.33;94.19;98631.31;5078937;27;45238;-88
2023/10/25 07:56:39;;;;;;;;;0.33;0.33;;;;;14.56;94.25;98664.56;5081299;28;45250;-87
2023/10/25 07:59:04;;;;;;;;;1.00;1.00;;;;;14.59;94.31;98658.94;5086087;27;45284;-85
2023/10/25 08:01:31;;;;;;;;;0.00;0.00;;;;;14.45;93.56;98633.63;5099570;27;47309;-87
2023/10/25 08:03:56;;;;;;;;;1.00;1.00;;;;;14.31;93.01;98622.59;5082753;27;45514;-90
2023/10/25 08:06:22;;;;;;;;;2.00;2.00;;;;;14.50;93.32;98653.69;5082038;27;45302;-87
2023/10/25 08:08:50;;;;;;;;;2.00;1.00;;;;;14.30;93.26;98631.63;5081826;27;45238;-88
2023/10/25 08:11:16;;;;;;;;;0.00;0.00;;;;;14.68;93.25;98674.00;5081956;27;45436;-88
2023/10/25 08:13:43;;;;;;;;;1.67;1.67;;;;;14.62;92.13;98653.25;5082799;27;45471;-87
2023/10/25 08:16:08;;;;;;;;;2.00;0.00;;;;;14.61;91.60;98645.41;5098773;27;45302;-86
2023/10/25 08:18:35;;;;;;;;;2.00;2.00;;;;;14.83;91.94;98676.09;5082714;28;45266;-88
2023/10/25 08:21:01;;;;;;;;;1.00;1.00;;;;;14.57;91.67;98631.47;5082812;27;45325;-87
2023/10/25 08:23:27;;;;;;;;;4.67;2.00;;;;;14.85;91.88;98680.31;5084215;27;45185;-88
2023/10/25 08:25:53;;;;;;;;;5.00;5.00;;;;;14.70;91.27;98660.47;5086029;28;45359;-85
2023/10/25 08:28:18;;;;;;;;;1.00;1.00;;;;;14.84;90.99;98678.59;5089598;28;45293;-86
2023/10/25 08:30:44;;;;;;;;;2.00;2.00;;;;;14.86;90.15;98683.81;5090757;28;47054;-87
2023/10/25 08:33:10;;;;;;;;;2.00;2.00;;;;;14.64;90.45;98653.09;5090045;28;45393;-88
2023/10/25 08:35:37;;;;;;;;;2.00;2.00;;;;;14.83;90.97;98684.97;5086588;27;45376;-86
2023/10/25 08:38:02;;;;;;;;;1.67;1.67;;;;;14.71;90.17;98672.84;5083798;28;44808;-87
2023/10/25 08:40:28;;;;;;;;;2.00;2.00;;;;;14.81;90.54;98688.78;5087555;28;45326;-88
2023/10/25 08:42:58;;;;;;;;;2.00;2.00;;;;;14.87;90.74;98698.88;5087583;28;45253;-88
2023/10/25 08:45:24;;;;;;;;;1.00;1.00;;;;;14.88;89.53;98684.50;5092986;27;44822;-89
2023/10/25 08:47:50;;;;;;;;;3.00;1.33;;;;;14.93;89.76;98679.50;5093346;27;44795;-86
2023/10/25 08:50:19;;;;;;;;;2.00;2.00;;;;;14.82;88.71;98653.00;5085361;27;45398;-89
2023/10/25 08:52:48;;;;;;;;;2.00;2.00;;;;;15.00;88.82;98669.84;5085998;28;45421;-87
2023/10/25 08:55:15;;;;;;;;;2.00;2.00;;;;;14.90;88.60;98650.38;5084061;28;45395;-88
2023/10/25 08:57:41;;;;;;;;;2.00;2.00;;;;;15.26;88.23;98692.03;5089163;27;45344;-88
2023/10/25 09:00:09;;;;;;;;;2.67;2.00;;;;;15.22;88.07;98681.78;5090721;28;46462;-87
2023/10/25 09:02:37;;;;;;;;;4.33;1.33;;;;;15.41;87.17;98694.09;5088491;27;45217;-88
2023/10/25 09:05:08;;;;;;;;;1.67;1.67;;;;;15.39;86.29;98672.00;5093333;28;45298;-87
2023/10/25 09:07:39;;;;;;;;;2.67;2.67;;;;;15.58;85.86;98685.91;5089212;28;45532;-86
2023/10/25 09:10:15;;;;;;;;;2.00;2.00;;;;;15.66;85.92;98685.13;5071965;28;46897;-86
2023/10/25 09:13:01;;;;;;;;;2.00;2.00;;;;;15.64;85.05;98663.03;5094314;28;45357;-87
2023/10/25 09:15:35;;;;;;;;;4.00;3.00;;;;;15.49;84.70;98630.63;5091768;28;44674;-88
2023/10/25 09:18:02;;;;;;;;;2.00;2.00;;;;;15.81;83.85;98688.84;5088152;27;45075;-86
2023/10/25 09:20:32;;;;;;;;;1.33;1.33;;;;;15.83;84.51;98686.84;5073409;28;47160;-86
2023/10/25 09:23:12;;;;;;;;;4.00;2.00;;;;;15.81;84.66;98699.56;5090609;28;45442;-86
2023/10/25 09:25:37;;;;;;;;;1.00;1.00;;;;;15.48;83.83;98628.13;5086719;28;45354;-86
2023/10/25 09:28:27;;;;;;;;;2.00;1.00;;;;;15.75;83.73;98665.38;5104624;27;45167;-84
2023/10/25 09:30:59;;;;;;;;;1.67;1.67;;;;;15.83;83.78;98686.00;5087892;27;45438;-86
2023/10/25 09:33:29;;;;;;;;;3.00;3.00;;;;;15.81;84.30;98688.00;5086933;27;45224;-85
2023/10/25 09:35:56;;;;;;;;;1.67;1.67;;;;;15.82;83.82;98676.28;5087932;28;45279;-86
2023/10/25 09:38:24;;;;;;;;;2.00;2.00;;;;;15.78;83.56;98678.47;5087453;27;45631;-87
2023/10/25 09:40:51;;;;;;;;;1.00;1.00;;;;;15.79;82.86;98681.97;5071499;28;46321;-87
2023/10/25 09:43:24;;;;;;;;;5.67;4.00;;;;;15.79;83.34;98685.50;5090879;27;45234;-88
2023/10/25 09:45:54;;;;;;;;;4.67;4.33;;;;;15.65;82.89;98653.16;5089240;27;45465;-91
2023/10/25 09:48:20;;;;;;;;;3.00;1.00;;;;;15.97;82.49;98676.47;5089033;28;45518;-85
2023/10/25 09:51:08;;;;;;;;;2.67;2.67;;;;;16.12;80.94;98680.97;5088663;27;46189;-87
2023/10/25 09:53:46;;;;;;;;;3.00;3.00;;;;;16.25;80.44;98679.63;5093735;27;45165;-85
2023/10/25 09:56:13;;;;;;;;;3.00;3.00;;;;;16.19;80.63;98673.13;5075075;28;44774;-86
2023/10/25 09:58:40;;;;;;;;;2.67;2.67;;;;;15.86;80.59;98632.88;5089019;27;45275;-87
2023/10/25 10:01:08;;;;;;;;;9.33;4.33;;;;;15.99;80.31;98669.09;5088669;28;46805;-84
2023/10/25 10:04:19;;;;;;;;;1.00;1.00;;;;;15.80;80.75;98680.97;5105160;27;45219;-86
2023/10/25 10:06:58;;;;;;;;;2.00;2.00;;;;;15.60;81.04;98675.91;5077790;27;45416;-85
2023/10/25 10:09:26;;;;;;;;;2.00;0.67;;;;;15.58;81.51;98674.38;5087688;28;45219;-86
2023/10/25 10:12:02;;;;;;;;;1.00;1.00;;;;;15.39;81.06;98661.28;5084857;27;46400;-87
2023/10/25 10:14:39;;;;;;;;;1.67;1.00;;;;;15.43;82.03;98684.03;5097828;27;45404;-89
2023/10/25 10:17:17;;;;;;;;;0.00;0.00;;;;;15.33;81.37;98684.19;5087846;28;45332;-85
2023/10/25 10:19:44;;;;;;;;;1.00;1.00;;;;;15.38;81.60;98668.47;5095646;27;44775;-86
2023/10/25 10:22:14;;;;;;;;;1.00;1.00;;;;;15.53;80.91;98679.38;5087725;27;45306;-85
2023/10/25 10:24:52;;;;;;;;;1.67;1.67;;;;;15.50;81.53;98677.03;5085546;28;45378;-87
2023/10/25 10:27:18;;;;;;;;;3.00;2.00;;;;;15.53;81.88;98679.38;5084903;27;45501;-89
2023/10/25 10:29:45;;;;;;;;;1.33;1.33;;;;;15.34;81.40;98678.66;5081190;27;45630;-88
2023/10/25 10:32:12;;;;;;;;;1.00;1.00;;;;;15.30;81.53;98681.81;5081296;27;45909;-89
2023/10/25 10:34:50;;;;;;;;;2.00;2.00;;;;;15.09;81.35;98670.69;5079744;27;45274;-89
2023/10/25 10:37:17;;;;;;;;;1.67;1.67;;;;;15.12;82.75;98686.47;5079673;27;45425;-86
2023/10/25 10:39:58;;;;;;;;;2.67;2.67;;;;;15.05;83.74;98683.56;5081273;27;45252;-86
2023/10/25 10:42:36;;;;;;;;;4.00;4.00;;;;;15.01;84.17;98674.19;5077142;28;47882;-87
2023/10/25 10:45:03;;;;;;;;;4.00;4.00;;;;;14.97;85.47;98678.16;5098622;27;45374;-87
2023/10/25 10:47:50;;;;;;;;;2.33;2.33;;;;;14.87;85.67;98688.19;5101458;27;45251;-85
2023/10/25 10:50:18;;;;;;;;;9.00;9.00;;;;;14.66;85.13;98676.00;5083413;27;45557;-87
2023/10/25 10:52:45;;;;;;;;;2.00;2.00;;;;;14.65;85.81;98690.38;5084403;27;45439;-84
2023/10/25 10:55:21;;;;;;;;;3.00;3.00;;;;;14.27;86.95;98643.47;5084305;27;45427;-86
2023/10/25 10:57:47;;;;;;;;;2.00;2.00;;;;;14.48;87.01;98677.91;5079329;28;45382;-87
2023/10/25 11:00:16;;;;;;;;;2.00;2.00;;;;;14.39;87.72;98676.97;5078013;28;45619;-86
2023/10/25 11:02:46;;;;;;;;;3.33;2.00;;;;;14.33;88.04;98679.47;5075888;27;47228;-87
2023/10/25 11:05:15;;;;;;;;;3.33;3.33;;;;;14.42;88.96;98673.16;5077743;27;45345;-85
2023/10/25 11:07:41;;;;;;;;;4.00;3.00;;;;;14.50;88.68;98680.44;5079051;27;45305;-85
2023/10/25 11:10:07;;;;;;;;;2.00;2.00;;;;;14.48;87.70;98685.94;5077789;27;45588;-84
2023/10/25 11:12:32;;;;;;;;;4.00;3.00;;;;;14.43;88.77;98680.19;5075895;28;47158;-85
2023/10/25 11:15:03;;;;;;;;;3.00;2.00;;;;;14.32;88.80;98662.56;5077250;27;45353;-84
2023/10/25 11:17:29;;;;;;;;;3.33;3.33;;;;;14.31;89.27;98655.53;5077618;28;45234;-86
2023/10/25 11:19:55;;;;;;;;;5.00;3.33;;;;;14.32;90.36;98667.06;5077693;27;45283;-86
2023/10/25 11:22:20;;;;;;;;;3.00;3.00;;;;;14.04;90.28;98626.25;5077217;27;54944;-85
2023/10/25 11:24:52;;;;;;;;;3.00;3.00;;;;;14.48;90.88;98691.28;5076501;28;60452;-85
2023/10/25 11:27:18;;;;;;;;;3.67;3.67;;;;;14.37;90.78;98659.41;5077610;27;45322;-85
2023/10/25 11:29:43;;;;;;;;;4.00;4.00;;;;;14.60;90.58;98698.06;5093326;27;45564;-84
2023/10/25 11:32:12;;;;;;;;;3.00;3.00;;;;;14.58;89.92;98694.69;5078986;27;45975;-85